sensor_id;sensor_type;location;lat;lon;timestamp;P1;durP1;ratioP1;P2;durP2;ratioP2
62673;SDS011;62269;47.594;17.638;2023-05-10T00:00:13;5.60;;;4.40;;
62673;SDS011;62269;47.594;17.638;2023-05-10T00:01:10;5.65;;;4.45;;
62673;SDS011;62269;47.594;17.638;2023-05-10T00:02:07;6.50;;;4.85;;
62673;SDS011;62269;47.594;17.638;2023-05-10T00:03:05;6.05;;;4.72;;
62673;SDS011;62269;47.594;17.638;2023-05-10T00:04:02;6.03;;;4.45;;
62673;SDS011;62269;47.594;17.638;2023-05-10T00:05:00;7.32;;;4.55;;
62673;SDS011;62269;47.594;17.638;2023-05-10T00:05:57;5.53;;;4.80;;
62673;SDS011;62269;47.594;17.638;2023-05-10T00:06:55;6.05;;;4.55;;
62673;SDS011;62269;47.594;17.638;2023-05-10T00:07:52;5.43;;;4.43;;
62673;SDS011;62269;47.594;17.638;2023-05-10T00:08:49;7.30;;;5.05;;
62673;SDS011;62269;47.594;17.638;2023-05-10T00:09:46;5.30;;;4.47;;
62673;SDS011;62269;47.594;17.638;2023-05-10T00:10:43;4.78;;;4.28;;
62673;SDS011;62269;47.594;17.638;2023-05-10T00:11:40;7.50;;;5.03;;
62673;SDS011;62269;47.594;17.638;2023-05-10T00:12:37;10.27;;;4.78;;
62673;SDS011;62269;47.594;17.638;2023-05-10T00:13:34;5.07;;;4.57;;
62673;SDS011;62269;47.594;17.638;2023-05-10T00:14:31;6.62;;;4.50;;
62673;SDS011;62269;47.594;17.638;2023-05-10T00:15:28;7.28;;;4.50;;
62673;SDS011;62269;47.594;17.638;2023-05-10T00:16:26;5.20;;;4.55;;
62673;SDS011;62269;47.594;17.638;2023-05-10T00:17:23;8.45;;;4.72;;
62673;SDS011;62269;47.594;17.638;2023-05-10T00:18:21;5.32;;;4.82;;
62673;SDS011;62269;47.594;17.638;2023-05-10T00:19:18;5.32;;;4.82;;
62673;SDS011;62269;47.594;17.638;2023-05-10T00:20:15;5.65;;;4.62;;
62673;SDS011;62269;47.594;17.638;2023-05-10T00:21:12;7.15;;;5.25;;
62673;SDS011;62269;47.594;17.638;2023-05-10T00:22:09;5.80;;;5.20;;
62673;SDS011;62269;47.594;17.638;2023-05-10T00:23:06;6.28;;;4.97;;
62673;SDS011;62269;47.594;17.638;2023-05-10T00:24:04;8.55;;;5.35;;
62673;SDS011;62269;47.594;17.638;2023-05-10T00:25:01;7.53;;;5.45;;
62673;SDS011;62269;47.594;17.638;2023-05-10T00:25:58;7.05;;;5.53;;
62673;SDS011;62269;47.594;17.638;2023-05-10T00:26:55;5.90;;;5.30;;
62673;SDS011;62269;47.594;17.638;2023-05-10T00:27:52;6.30;;;5.32;;
62673;SDS011;62269;47.594;17.638;2023-05-10T00:28:51;6.07;;;5.35;;
62673;SDS011;62269;47.594;17.638;2023-05-10T00:29:48;6.03;;;5.10;;
62673;SDS011;62269;47.594;17.638;2023-05-10T00:30:45;7.22;;;5.45;;
62673;SDS011;62269;47.594;17.638;2023-05-10T00:31:42;7.60;;;5.40;;
62673;SDS011;62269;47.594;17.638;2023-05-10T00:32:39;8.07;;;5.47;;
62673;SDS011;62269;47.594;17.638;2023-05-10T00:33:36;6.10;;;5.50;;
62673;SDS011;62269;47.594;17.638;2023-05-10T00:34:33;6.95;;;5.22;;
62673;SDS011;62269;47.594;17.638;2023-05-10T00:35:30;8.32;;;5.57;;
62673;SDS011;62269;47.594;17.638;2023-05-10T00:36:27;7.65;;;5.40;;
62673;SDS011;62269;47.594;17.638;2023-05-10T00:37:24;9.05;;;5.57;;
62673;SDS011;62269;47.594;17.638;2023-05-10T00:38:21;6.12;;;5.22;;
62673;SDS011;62269;47.594;17.638;2023-05-10T00:39:18;6.05;;;5.40;;
62673;SDS011;62269;47.594;17.638;2023-05-10T00:40:15;6.30;;;5.47;;
62673;SDS011;62269;47.594;17.638;2023-05-10T00:41:13;9.48;;;5.97;;
62673;SDS011;62269;47.594;17.638;2023-05-10T00:42:10;9.23;;;5.80;;
62673;SDS011;62269;47.594;17.638;2023-05-10T00:43:07;8.25;;;5.30;;
62673;SDS011;62269;47.594;17.638;2023-05-10T00:44:04;7.95;;;6.00;;
62673;SDS011;62269;47.594;17.638;2023-05-10T00:45:01;8.60;;;5.57;;
62673;SDS011;62269;47.594;17.638;2023-05-10T00:45:58;6.70;;;5.97;;
62673;SDS011;62269;47.594;17.638;2023-05-10T00:46:55;5.90;;;5.30;;
62673;SDS011;62269;47.594;17.638;2023-05-10T00:47:52;8.90;;;5.85;;
62673;SDS011;62269;47.594;17.638;2023-05-10T00:48:51;6.53;;;5.47;;
62673;SDS011;62269;47.594;17.638;2023-05-10T00:49:49;8.32;;;6.05;;
62673;SDS011;62269;47.594;17.638;2023-05-10T00:50:46;9.20;;;5.90;;
62673;SDS011;62269;47.594;17.638;2023-05-10T00:51:43;6.85;;;5.50;;
62673;SDS011;62269;47.594;17.638;2023-05-10T00:52:41;8.82;;;6.87;;
62673;SDS011;62269;47.594;17.638;2023-05-10T00:53:38;8.38;;;6.55;;
62673;SDS011;62269;47.594;17.638;2023-05-10T00:54:35;8.65;;;5.97;;
62673;SDS011;62269;47.594;17.638;2023-05-10T00:55:32;6.80;;;6.10;;
62673;SDS011;62269;47.594;17.638;2023-05-10T00:56:29;7.62;;;5.32;;
62673;SDS011;62269;47.594;17.638;2023-05-10T00:57:27;7.28;;;5.57;;
62673;SDS011;62269;47.594;17.638;2023-05-10T00:58:24;8.07;;;5.32;;
62673;SDS011;62269;47.594;17.638;2023-05-10T00:59:24;8.40;;;5.95;;
62673;SDS011;62269;47.594;17.638;2023-05-10T01:00:21;8.85;;;5.60;;
62673;SDS011;62269;47.594;17.638;2023-05-10T01:01:19;7.05;;;5.70;;
62673;SDS011;62269;47.594;17.638;2023-05-10T01:02:16;6.53;;;5.80;;
62673;SDS011;62269;47.594;17.638;2023-05-10T01:03:13;7.95;;;6.28;;
62673;SDS011;62269;47.594;17.638;2023-05-10T01:04:11;7.95;;;5.82;;
62673;SDS011;62269;47.594;17.638;2023-05-10T01:05:09;7.28;;;5.68;;
62673;SDS011;62269;47.594;17.638;2023-05-10T01:06:06;7.75;;;6.15;;
62673;SDS011;62269;47.594;17.638;2023-05-10T01:07:04;7.93;;;5.90;;
62673;SDS011;62269;47.594;17.638;2023-05-10T01:08:01;7.43;;;5.80;;
62673;SDS011;62269;47.594;17.638;2023-05-10T01:08:59;8.25;;;5.75;;
62673;SDS011;62269;47.594;17.638;2023-05-10T01:09:56;7.90;;;5.60;;
62673;SDS011;62269;47.594;17.638;2023-05-10T01:10:53;8.00;;;6.10;;
62673;SDS011;62269;47.594;17.638;2023-05-10T01:11:50;7.68;;;5.60;;
62673;SDS011;62269;47.594;17.638;2023-05-10T01:12:47;8.27;;;5.90;;
62673;SDS011;62269;47.594;17.638;2023-05-10T01:13:46;6.28;;;5.65;;
62673;SDS011;62269;47.594;17.638;2023-05-10T01:14:46;10.10;;;6.05;;
62673;SDS011;62269;47.594;17.638;2023-05-10T01:15:44;7.93;;;6.22;;
62673;SDS011;62269;47.594;17.638;2023-05-10T01:16:42;7.75;;;6.60;;
62673;SDS011;62269;47.594;17.638;2023-05-10T01:17:41;10.02;;;6.45;;
62673;SDS011;62269;47.594;17.638;2023-05-10T01:18:40;7.43;;;6.40;;
62673;SDS011;62269;47.594;17.638;2023-05-10T01:19:37;9.20;;;6.43;;
62673;SDS011;62269;47.594;17.638;2023-05-10T01:20:36;8.32;;;6.60;;
62673;SDS011;62269;47.594;17.638;2023-05-10T01:21:48;7.28;;;6.00;;
62673;SDS011;62269;47.594;17.638;2023-05-10T01:31:39;8.30;;;6.00;;
62673;SDS011;62269;47.594;17.638;2023-05-10T01:34:01;8.80;;;6.43;;
62673;SDS011;62269;47.594;17.638;2023-05-10T01:35:00;8.38;;;5.97;;
62673;SDS011;62269;47.594;17.638;2023-05-10T01:36:05;7.62;;;6.20;;
62673;SDS011;62269;47.594;17.638;2023-05-10T01:37:28;7.70;;;6.60;;
62673;SDS011;62269;47.594;17.638;2023-05-10T01:39:47;6.87;;;6.12;;
62673;SDS011;62269;47.594;17.638;2023-05-10T01:42:11;7.97;;;6.85;;
62673;SDS011;62269;47.594;17.638;2023-05-10T01:43:16;9.27;;;6.05;;
62673;SDS011;62269;47.594;17.638;2023-05-10T01:45:24;9.82;;;6.50;;
62673;SDS011;62269;47.594;17.638;2023-05-10T01:46:28;8.98;;;6.80;;
62673;SDS011;62269;47.594;17.638;2023-05-10T01:47:40;8.02;;;7.10;;
62673;SDS011;62269;47.594;17.638;2023-05-10T01:48:40;11.45;;;6.97;;
62673;SDS011;62269;47.594;17.638;2023-05-10T01:50:01;8.57;;;7.25;;
62673;SDS011;62269;47.594;17.638;2023-05-10T01:51:00;8.55;;;6.40;;
62673;SDS011;62269;47.594;17.638;2023-05-10T01:51:59;9.10;;;7.18;;
62673;SDS011;62269;47.594;17.638;2023-05-10T01:53:01;8.65;;;7.20;;
62673;SDS011;62269;47.594;17.638;2023-05-10T01:54:00;7.95;;;6.87;;
62673;SDS011;62269;47.594;17.638;2023-05-10T01:55:00;9.38;;;7.12;;
62673;SDS011;62269;47.594;17.638;2023-05-10T01:56:59;8.30;;;6.82;;
62673;SDS011;62269;47.594;17.638;2023-05-10T01:58:04;10.13;;;7.68;;
62673;SDS011;62269;47.594;17.638;2023-05-10T01:59:04;8.38;;;7.45;;
62673;SDS011;62269;47.594;17.638;2023-05-10T02:00:03;8.20;;;6.85;;
62673;SDS011;62269;47.594;17.638;2023-05-10T02:01:01;9.77;;;7.10;;
62673;SDS011;62269;47.594;17.638;2023-05-10T02:02:00;7.80;;;6.47;;
62673;SDS011;62269;47.594;17.638;2023-05-10T02:02:59;8.55;;;6.68;;
62673;SDS011;62269;47.594;17.638;2023-05-10T02:03:57;7.05;;;6.35;;
62673;SDS011;62269;47.594;17.638;2023-05-10T02:04:54;8.90;;;6.62;;
62673;SDS011;62269;47.594;17.638;2023-05-10T02:05:52;8.57;;;6.60;;
62673;SDS011;62269;47.594;17.638;2023-05-10T02:06:50;8.95;;;6.82;;
62673;SDS011;62269;47.594;17.638;2023-05-10T02:07:48;10.30;;;7.35;;
62673;SDS011;62269;47.594;17.638;2023-05-10T02:08:46;7.93;;;7.00;;
62673;SDS011;62269;47.594;17.638;2023-05-10T02:09:44;9.23;;;7.15;;
62673;SDS011;62269;47.594;17.638;2023-05-10T02:10:45;11.40;;;7.35;;
62673;SDS011;62269;47.594;17.638;2023-05-10T02:11:42;8.43;;;6.43;;
62673;SDS011;62269;47.594;17.638;2023-05-10T02:12:43;8.52;;;7.10;;
62673;SDS011;62269;47.594;17.638;2023-05-10T02:13:41;7.97;;;6.70;;
62673;SDS011;62269;47.594;17.638;2023-05-10T02:14:39;7.95;;;6.40;;
62673;SDS011;62269;47.594;17.638;2023-05-10T02:15:38;8.15;;;6.57;;
62673;SDS011;62269;47.594;17.638;2023-05-10T02:16:37;8.35;;;7.45;;
62673;SDS011;62269;47.594;17.638;2023-05-10T02:17:35;7.20;;;6.37;;
62673;SDS011;62269;47.594;17.638;2023-05-10T02:18:33;7.20;;;6.47;;
62673;SDS011;62269;47.594;17.638;2023-05-10T02:19:31;8.80;;;6.53;;
62673;SDS011;62269;47.594;17.638;2023-05-10T02:20:29;9.13;;;7.07;;
62673;SDS011;62269;47.594;17.638;2023-05-10T02:21:28;8.73;;;6.80;;
62673;SDS011;62269;47.594;17.638;2023-05-10T02:22:27;14.30;;;7.25;;
62673;SDS011;62269;47.594;17.638;2023-05-10T02:23:24;8.65;;;7.10;;
62673;SDS011;62269;47.594;17.638;2023-05-10T02:24:22;8.07;;;6.93;;
62673;SDS011;62269;47.594;17.638;2023-05-10T02:25:21;8.98;;;6.72;;
62673;SDS011;62269;47.594;17.638;2023-05-10T02:26:18;10.27;;;7.85;;
62673;SDS011;62269;47.594;17.638;2023-05-10T02:27:17;9.85;;;7.53;;
62673;SDS011;62269;47.594;17.638;2023-05-10T02:28:16;9.05;;;7.32;;
62673;SDS011;62269;47.594;17.638;2023-05-10T02:29:14;7.75;;;6.53;;
62673;SDS011;62269;47.594;17.638;2023-05-10T02:30:11;7.80;;;7.00;;
62673;SDS011;62269;47.594;17.638;2023-05-10T02:31:08;10.07;;;7.20;;
62673;SDS011;62269;47.594;17.638;2023-05-10T02:32:07;7.40;;;6.60;;
62673;SDS011;62269;47.594;17.638;2023-05-10T02:33:05;7.90;;;6.85;;
62673;SDS011;62269;47.594;17.638;2023-05-10T02:34:03;9.63;;;6.50;;
62673;SDS011;62269;47.594;17.638;2023-05-10T02:35:01;8.15;;;6.93;;
62673;SDS011;62269;47.594;17.638;2023-05-10T02:35:59;8.82;;;7.12;;
62673;SDS011;62269;47.594;17.638;2023-05-10T02:36:58;8.23;;;7.05;;
62673;SDS011;62269;47.594;17.638;2023-05-10T02:37:55;7.57;;;6.45;;
62673;SDS011;62269;47.594;17.638;2023-05-10T02:38:53;7.32;;;6.20;;
62673;SDS011;62269;47.594;17.638;2023-05-10T02:39:50;7.03;;;6.25;;
62673;SDS011;62269;47.594;17.638;2023-05-10T02:40:48;7.60;;;6.75;;
62673;SDS011;62269;47.594;17.638;2023-05-10T02:41:46;8.73;;;6.45;;
62673;SDS011;62269;47.594;17.638;2023-05-10T02:42:44;7.70;;;6.87;;
62673;SDS011;62269;47.594;17.638;2023-05-10T02:43:42;8.15;;;6.90;;
62673;SDS011;62269;47.594;17.638;2023-05-10T02:44:40;8.13;;;6.90;;
62673;SDS011;62269;47.594;17.638;2023-05-10T02:45:38;7.15;;;6.07;;
62673;SDS011;62269;47.594;17.638;2023-05-10T02:46:36;8.82;;;6.50;;
62673;SDS011;62269;47.594;17.638;2023-05-10T02:47:34;7.50;;;6.70;;
62673;SDS011;62269;47.594;17.638;2023-05-10T02:48:31;7.25;;;6.55;;
62673;SDS011;62269;47.594;17.638;2023-05-10T02:49:28;8.00;;;6.65;;
62673;SDS011;62269;47.594;17.638;2023-05-10T02:50:28;7.93;;;6.68;;
62673;SDS011;62269;47.594;17.638;2023-05-10T02:51:28;7.60;;;6.78;;
62673;SDS011;62269;47.594;17.638;2023-05-10T02:52:35;8.90;;;6.95;;
62673;SDS011;62269;47.594;17.638;2023-05-10T02:53:36;10.63;;;7.10;;
62673;SDS011;62269;47.594;17.638;2023-05-10T02:54:39;7.82;;;6.35;;
62673;SDS011;62269;47.594;17.638;2023-05-10T02:55:40;7.60;;;6.80;;
62673;SDS011;62269;47.594;17.638;2023-05-10T02:56:42;7.47;;;6.70;;
62673;SDS011;62269;47.594;17.638;2023-05-10T02:57:56;9.35;;;7.37;;
62673;SDS011;62269;47.594;17.638;2023-05-10T02:58:55;8.75;;;6.25;;
62673;SDS011;62269;47.594;17.638;2023-05-10T02:59:52;7.87;;;6.78;;
62673;SDS011;62269;47.594;17.638;2023-05-10T03:00:49;7.78;;;6.72;;
62673;SDS011;62269;47.594;17.638;2023-05-10T03:01:46;9.02;;;6.78;;
62673;SDS011;62269;47.594;17.638;2023-05-10T03:02:43;9.63;;;6.85;;
62673;SDS011;62269;47.594;17.638;2023-05-10T03:03:40;10.57;;;7.22;;
62673;SDS011;62269;47.594;17.638;2023-05-10T03:04:37;9.00;;;7.35;;
62673;SDS011;62269;47.594;17.638;2023-05-10T03:05:34;8.90;;;6.80;;
62673;SDS011;62269;47.594;17.638;2023-05-10T03:06:31;7.37;;;6.68;;
62673;SDS011;62269;47.594;17.638;2023-05-10T03:07:29;7.53;;;6.78;;
62673;SDS011;62269;47.594;17.638;2023-05-10T03:08:26;14.13;;;7.20;;
62673;SDS011;62269;47.594;17.638;2023-05-10T03:09:25;8.38;;;7.05;;
62673;SDS011;62269;47.594;17.638;2023-05-10T03:10:24;9.25;;;6.75;;
62673;SDS011;62269;47.594;17.638;2023-05-10T03:11:45;13.55;;;7.18;;
62673;SDS011;62269;47.594;17.638;2023-05-10T03:13:14;8.10;;;6.28;;
62673;SDS011;62269;47.594;17.638;2023-05-10T03:16:55;8.73;;;6.20;;
62673;SDS011;62269;47.594;17.638;2023-05-10T03:17:55;7.90;;;6.32;;
62673;SDS011;62269;47.594;17.638;2023-05-10T03:20:48;10.20;;;7.03;;
62673;SDS011;62269;47.594;17.638;2023-05-10T03:21:47;7.50;;;5.95;;
62673;SDS011;62269;47.594;17.638;2023-05-10T03:22:49;7.20;;;6.32;;
62673;SDS011;62269;47.594;17.638;2023-05-10T03:24:22;8.73;;;6.37;;
62673;SDS011;62269;47.594;17.638;2023-05-10T03:25:12;8.23;;;6.72;;
62673;SDS011;62269;47.594;17.638;2023-05-10T03:26:09;7.70;;;6.43;;
62673;SDS011;62269;47.594;17.638;2023-05-10T03:27:07;7.12;;;6.28;;
62673;SDS011;62269;47.594;17.638;2023-05-10T03:28:04;7.90;;;6.30;;
62673;SDS011;62269;47.594;17.638;2023-05-10T03:29:02;8.20;;;6.72;;
62673;SDS011;62269;47.594;17.638;2023-05-10T03:30:00;9.63;;;6.53;;
62673;SDS011;62269;47.594;17.638;2023-05-10T03:30:58;9.20;;;6.40;;
62673;SDS011;62269;47.594;17.638;2023-05-10T03:31:55;10.55;;;7.18;;
62673;SDS011;62269;47.594;17.638;2023-05-10T03:32:55;8.85;;;6.55;;
62673;SDS011;62269;47.594;17.638;2023-05-10T03:33:53;10.00;;;7.55;;
62673;SDS011;62269;47.594;17.638;2023-05-10T03:34:50;13.40;;;8.20;;
62673;SDS011;62269;47.594;17.638;2023-05-10T03:35:47;9.55;;;7.35;;
62673;SDS011;62269;47.594;17.638;2023-05-10T03:36:44;10.15;;;7.70;;
62673;SDS011;62269;47.594;17.638;2023-05-10T03:37:41;9.45;;;7.80;;
62673;SDS011;62269;47.594;17.638;2023-05-10T03:38:38;9.63;;;8.30;;
62673;SDS011;62269;47.594;17.638;2023-05-10T03:39:35;12.05;;;7.80;;
62673;SDS011;62269;47.594;17.638;2023-05-10T03:40:32;11.75;;;7.37;;
62673;SDS011;62269;47.594;17.638;2023-05-10T03:41:30;10.30;;;8.13;;
62673;SDS011;62269;47.594;17.638;2023-05-10T03:42:27;11.68;;;8.63;;
62673;SDS011;62269;47.594;17.638;2023-05-10T03:43:24;11.45;;;8.50;;
62673;SDS011;62269;47.594;17.638;2023-05-10T03:44:21;10.38;;;8.05;;
62673;SDS011;62269;47.594;17.638;2023-05-10T03:45:18;9.57;;;7.30;;
62673;SDS011;62269;47.594;17.638;2023-05-10T03:46:15;11.25;;;7.95;;
62673;SDS011;62269;47.594;17.638;2023-05-10T03:47:12;9.32;;;8.00;;
62673;SDS011;62269;47.594;17.638;2023-05-10T03:48:09;9.18;;;7.57;;
62673;SDS011;62269;47.594;17.638;2023-05-10T03:49:06;9.05;;;7.30;;
62673;SDS011;62269;47.594;17.638;2023-05-10T03:50:03;10.48;;;8.65;;
62673;SDS011;62269;47.594;17.638;2023-05-10T03:51:01;9.63;;;8.48;;
62673;SDS011;62269;47.594;17.638;2023-05-10T03:51:58;10.38;;;8.30;;
62673;SDS011;62269;47.594;17.638;2023-05-10T03:52:55;10.07;;;7.62;;
62673;SDS011;62269;47.594;17.638;2023-05-10T03:53:56;8.73;;;7.72;;
62673;SDS011;62269;47.594;17.638;2023-05-10T03:54:53;10.70;;;7.47;;
62673;SDS011;62269;47.594;17.638;2023-05-10T03:55:50;10.38;;;8.18;;
62673;SDS011;62269;47.594;17.638;2023-05-10T03:56:47;9.50;;;7.70;;
62673;SDS011;62269;47.594;17.638;2023-05-10T03:57:44;10.35;;;8.30;;
62673;SDS011;62269;47.594;17.638;2023-05-10T03:58:41;10.30;;;7.68;;
62673;SDS011;62269;47.594;17.638;2023-05-10T03:59:38;7.53;;;6.60;;
62673;SDS011;62269;47.594;17.638;2023-05-10T04:00:35;9.43;;;7.80;;
62673;SDS011;62269;47.594;17.638;2023-05-10T04:01:33;10.23;;;8.20;;
62673;SDS011;62269;47.594;17.638;2023-05-10T04:02:31;9.10;;;8.00;;
62673;SDS011;62269;47.594;17.638;2023-05-10T04:03:28;8.20;;;7.22;;
62673;SDS011;62269;47.594;17.638;2023-05-10T04:04:25;8.20;;;7.32;;
62673;SDS011;62269;47.594;17.638;2023-05-10T04:05:22;9.88;;;7.60;;
62673;SDS011;62269;47.594;17.638;2023-05-10T04:06:19;9.27;;;6.93;;
62673;SDS011;62269;47.594;17.638;2023-05-10T04:07:16;9.02;;;6.90;;
62673;SDS011;62269;47.594;17.638;2023-05-10T04:08:14;10.80;;;7.25;;
62673;SDS011;62269;47.594;17.638;2023-05-10T04:09:12;8.38;;;7.37;;
62673;SDS011;62269;47.594;17.638;2023-05-10T04:10:10;8.05;;;7.07;;
62673;SDS011;62269;47.594;17.638;2023-05-10T04:11:08;8.25;;;6.97;;
62673;SDS011;62269;47.594;17.638;2023-05-10T04:12:06;9.30;;;7.10;;
62673;SDS011;62269;47.594;17.638;2023-05-10T04:13:06;10.43;;;7.22;;
62673;SDS011;62269;47.594;17.638;2023-05-10T04:14:03;10.18;;;7.18;;
62673;SDS011;62269;47.594;17.638;2023-05-10T04:15:00;7.95;;;6.93;;
62673;SDS011;62269;47.594;17.638;2023-05-10T04:15:57;8.40;;;6.62;;
62673;SDS011;62269;47.594;17.638;2023-05-10T04:16:54;9.02;;;7.22;;
62673;SDS011;62269;47.594;17.638;2023-05-10T04:17:51;9.43;;;7.05;;
62673;SDS011;62269;47.594;17.638;2023-05-10T04:18:50;8.35;;;6.93;;
62673;SDS011;62269;47.594;17.638;2023-05-10T04:19:47;9.15;;;7.05;;
62673;SDS011;62269;47.594;17.638;2023-05-10T04:20:44;11.35;;;8.18;;
62673;SDS011;62269;47.594;17.638;2023-05-10T04:21:41;8.75;;;7.35;;
62673;SDS011;62269;47.594;17.638;2023-05-10T04:22:38;10.65;;;7.10;;
62673;SDS011;62269;47.594;17.638;2023-05-10T04:23:35;9.68;;;8.02;;
62673;SDS011;62269;47.594;17.638;2023-05-10T04:24:32;9.88;;;7.97;;
62673;SDS011;62269;47.594;17.638;2023-05-10T04:25:29;9.10;;;8.07;;
62673;SDS011;62269;47.594;17.638;2023-05-10T04:26:26;9.13;;;8.10;;
62673;SDS011;62269;47.594;17.638;2023-05-10T04:27:23;10.23;;;7.65;;
62673;SDS011;62269;47.594;17.638;2023-05-10T04:28:20;9.95;;;8.52;;
62673;SDS011;62269;47.594;17.638;2023-05-10T04:29:18;8.82;;;7.62;;
62673;SDS011;62269;47.594;17.638;2023-05-10T04:30:15;11.48;;;8.10;;
62673;SDS011;62269;47.594;17.638;2023-05-10T04:31:12;9.63;;;7.90;;
62673;SDS011;62269;47.594;17.638;2023-05-10T04:32:10;9.35;;;8.02;;
62673;SDS011;62269;47.594;17.638;2023-05-10T04:33:06;10.50;;;7.40;;
62673;SDS011;62269;47.594;17.638;2023-05-10T04:34:04;9.75;;;7.85;;
62673;SDS011;62269;47.594;17.638;2023-05-10T04:35:02;9.55;;;8.20;;
62673;SDS011;62269;47.594;17.638;2023-05-10T04:36:00;8.45;;;7.43;;
62673;SDS011;62269;47.594;17.638;2023-05-10T04:36:57;9.95;;;8.30;;
62673;SDS011;62269;47.594;17.638;2023-05-10T04:37:54;10.73;;;8.00;;
62673;SDS011;62269;47.594;17.638;2023-05-10T04:38:51;9.18;;;8.07;;
62673;SDS011;62269;47.594;17.638;2023-05-10T04:39:48;9.18;;;8.00;;
62673;SDS011;62269;47.594;17.638;2023-05-10T04:40:45;9.80;;;8.30;;
62673;SDS011;62269;47.594;17.638;2023-05-10T04:41:42;9.23;;;7.75;;
62673;SDS011;62269;47.594;17.638;2023-05-10T04:42:40;9.35;;;8.02;;
62673;SDS011;62269;47.594;17.638;2023-05-10T04:43:37;8.40;;;7.20;;
62673;SDS011;62269;47.594;17.638;2023-05-10T04:44:35;10.48;;;8.40;;
62673;SDS011;62269;47.594;17.638;2023-05-10T04:45:32;8.93;;;7.75;;
62673;SDS011;62269;47.594;17.638;2023-05-10T04:46:29;9.85;;;8.38;;
62673;SDS011;62269;47.594;17.638;2023-05-10T04:47:26;9.93;;;8.15;;
62673;SDS011;62269;47.594;17.638;2023-05-10T04:48:23;10.43;;;8.32;;
62673;SDS011;62269;47.594;17.638;2023-05-10T04:49:20;11.52;;;8.40;;
62673;SDS011;62269;47.594;17.638;2023-05-10T04:50:18;9.50;;;8.10;;
62673;SDS011;62269;47.594;17.638;2023-05-10T04:51:15;9.40;;;8.30;;
62673;SDS011;62269;47.594;17.638;2023-05-10T04:52:12;9.95;;;8.88;;
62673;SDS011;62269;47.594;17.638;2023-05-10T04:53:10;12.15;;;8.55;;
62673;SDS011;62269;47.594;17.638;2023-05-10T04:54:08;10.52;;;8.50;;
62673;SDS011;62269;47.594;17.638;2023-05-10T04:55:05;10.70;;;8.07;;
62673;SDS011;62269;47.594;17.638;2023-05-10T04:56:04;10.90;;;8.90;;
62673;SDS011;62269;47.594;17.638;2023-05-10T04:57:01;9.65;;;8.65;;
62673;SDS011;62269;47.594;17.638;2023-05-10T04:57:58;9.30;;;8.38;;
62673;SDS011;62269;47.594;17.638;2023-05-10T04:58:55;12.05;;;8.45;;
62673;SDS011;62269;47.594;17.638;2023-05-10T04:59:53;9.65;;;8.65;;
62673;SDS011;62269;47.594;17.638;2023-05-10T05:00:50;10.13;;;8.60;;
62673;SDS011;62269;47.594;17.638;2023-05-10T05:01:47;9.45;;;8.45;;
62673;SDS011;62269;47.594;17.638;2023-05-10T05:02:44;9.70;;;8.70;;
62673;SDS011;62269;47.594;17.638;2023-05-10T05:03:44;9.43;;;8.23;;
62673;SDS011;62269;47.594;17.638;2023-05-10T05:04:41;12.82;;;8.52;;
62673;SDS011;62269;47.594;17.638;2023-05-10T05:05:38;11.30;;;9.10;;
62673;SDS011;62269;47.594;17.638;2023-05-10T05:06:36;10.98;;;9.38;;
62673;SDS011;62269;47.594;17.638;2023-05-10T05:07:33;11.15;;;8.13;;
62673;SDS011;62269;47.594;17.638;2023-05-10T05:08:30;10.07;;;8.95;;
62673;SDS011;62269;47.594;17.638;2023-05-10T05:09:27;10.15;;;8.45;;
62673;SDS011;62269;47.594;17.638;2023-05-10T05:10:24;10.05;;;8.95;;
62673;SDS011;62269;47.594;17.638;2023-05-10T05:11:21;9.70;;;8.70;;
62673;SDS011;62269;47.594;17.638;2023-05-10T05:12:18;10.30;;;9.23;;
62673;SDS011;62269;47.594;17.638;2023-05-10T05:13:15;10.07;;;9.07;;
62673;SDS011;62269;47.594;17.638;2023-05-10T05:14:12;9.80;;;8.68;;
62673;SDS011;62269;47.594;17.638;2023-05-10T05:15:10;10.10;;;9.05;;
62673;SDS011;62269;47.594;17.638;2023-05-10T05:16:07;9.85;;;8.48;;
62673;SDS011;62269;47.594;17.638;2023-05-10T05:17:04;9.65;;;8.32;;
62673;SDS011;62269;47.594;17.638;2023-05-10T05:18:01;10.75;;;9.43;;
62673;SDS011;62269;47.594;17.638;2023-05-10T05:18:59;9.50;;;8.40;;
62673;SDS011;62269;47.594;17.638;2023-05-10T05:19:56;9.95;;;8.95;;
62673;SDS011;62269;47.594;17.638;2023-05-10T05:20:53;9.43;;;8.27;;
62673;SDS011;62269;47.594;17.638;2023-05-10T05:21:50;9.80;;;8.80;;
62673;SDS011;62269;47.594;17.638;2023-05-10T05:22:47;10.43;;;8.40;;
62673;SDS011;62269;47.594;17.638;2023-05-10T05:23:44;10.57;;;8.98;;
62673;SDS011;62269;47.594;17.638;2023-05-10T05:24:41;10.90;;;9.38;;
62673;SDS011;62269;47.594;17.638;2023-05-10T05:25:38;11.55;;;8.85;;
62673;SDS011;62269;47.594;17.638;2023-05-10T05:26:35;9.73;;;8.73;;
62673;SDS011;62269;47.594;17.638;2023-05-10T05:27:33;11.55;;;9.75;;
62673;SDS011;62269;47.594;17.638;2023-05-10T05:28:30;11.10;;;9.50;;
62673;SDS011;62269;47.594;17.638;2023-05-10T05:29:29;13.10;;;9.63;;
62673;SDS011;62269;47.594;17.638;2023-05-10T05:30:26;14.02;;;10.25;;
62673;SDS011;62269;47.594;17.638;2023-05-10T05:31:23;10.75;;;8.65;;
62673;SDS011;62269;47.594;17.638;2023-05-10T05:32:20;10.32;;;9.27;;
62673;SDS011;62269;47.594;17.638;2023-05-10T05:33:18;11.02;;;9.57;;
62673;SDS011;62269;47.594;17.638;2023-05-10T05:34:15;11.75;;;9.43;;
62673;SDS011;62269;47.594;17.638;2023-05-10T05:35:12;10.13;;;8.70;;
62673;SDS011;62269;47.594;17.638;2023-05-10T05:36:09;11.48;;;8.80;;
62673;SDS011;62269;47.594;17.638;2023-05-10T05:37:06;10.35;;;9.07;;
62673;SDS011;62269;47.594;17.638;2023-05-10T05:38:03;9.80;;;8.68;;
62673;SDS011;62269;47.594;17.638;2023-05-10T05:39:01;10.35;;;8.85;;
62673;SDS011;62269;47.594;17.638;2023-05-10T05:39:57;10.38;;;9.02;;
62673;SDS011;62269;47.594;17.638;2023-05-10T05:40:55;11.05;;;8.95;;
62673;SDS011;62269;47.594;17.638;2023-05-10T05:41:51;9.45;;;8.45;;
62673;SDS011;62269;47.594;17.638;2023-05-10T05:42:48;9.85;;;8.85;;
62673;SDS011;62269;47.594;17.638;2023-05-10T05:43:46;9.73;;;8.73;;
62673;SDS011;62269;47.594;17.638;2023-05-10T05:44:43;10.93;;;9.52;;
62673;SDS011;62269;47.594;17.638;2023-05-10T05:45:40;9.98;;;8.90;;
62673;SDS011;62269;47.594;17.638;2023-05-10T05:46:37;10.50;;;9.40;;
62673;SDS011;62269;47.594;17.638;2023-05-10T05:47:34;10.25;;;8.82;;
62673;SDS011;62269;47.594;17.638;2023-05-10T05:48:31;9.50;;;8.60;;
62673;SDS011;62269;47.594;17.638;2023-05-10T05:49:28;11.88;;;9.10;;
62673;SDS011;62269;47.594;17.638;2023-05-10T05:50:25;9.57;;;8.43;;
62673;SDS011;62269;47.594;17.638;2023-05-10T05:51:22;12.77;;;9.98;;
62673;SDS011;62269;47.594;17.638;2023-05-10T05:52:19;12.77;;;8.75;;
62673;SDS011;62269;47.594;17.638;2023-05-10T05:53:17;9.50;;;8.30;;
62673;SDS011;62269;47.594;17.638;2023-05-10T05:54:14;10.02;;;8.73;;
62673;SDS011;62269;47.594;17.638;2023-05-10T05:55:11;11.05;;;9.10;;
62673;SDS011;62269;47.594;17.638;2023-05-10T05:56:08;11.57;;;8.57;;
62673;SDS011;62269;47.594;17.638;2023-05-10T05:57:06;11.95;;;8.73;;
62673;SDS011;62269;47.594;17.638;2023-05-10T05:59:06;10.25;;;8.73;;
62673;SDS011;62269;47.594;17.638;2023-05-10T06:00:03;11.45;;;8.95;;
62673;SDS011;62269;47.594;17.638;2023-05-10T06:01:01;11.02;;;8.50;;
62673;SDS011;62269;47.594;17.638;2023-05-10T06:01:58;11.05;;;8.20;;
62673;SDS011;62269;47.594;17.638;2023-05-10T06:02:55;11.75;;;8.60;;
62673;SDS011;62269;47.594;17.638;2023-05-10T06:03:53;13.75;;;8.10;;
62673;SDS011;62269;47.594;17.638;2023-05-10T06:04:50;12.65;;;8.15;;